Aviation Digital Data Service (ADDS)

Output produced by METARs form (2227 UTC 23 March 2019)
found at http://www.aviationweather.gov/metar/data/
 
Forecast for: EVLA (LIEPAJA INTL , LV)
Text: TAF EVLA 232002Z 2321/2421 27012KT 9999 SCT030
Forecast period: 2100 UTC 23 March 2019 to 2100 UTC 24 March 2019
Forecast type: FROM: standard forecast or significant change
Winds: from the W (270 degrees) at 14 MPH (12 knots; 6.2 m/s)
Visibility: 6 or more miles 10+ km)
Ceiling: at least 12,000 feet AGL
Clouds: scattered clouds at 3000 feet AGL
Weather: no significant weather forecast for this period
Text: TEMPO 2321/2406 27018G30KT
Forecast period: 2100 UTC 23 March 2019 to 0600 UTC 24 March 2019
Forecast type: TEMPORARY: The following changes expected for less than half the time period
Winds: from the W (270 degrees) at 21 MPH (18 knots; 9.3 m/s)
gusting to 34 MPH (30 knots; 15.4 m/s)
Visibility: missing
Ceiling: unknown
Clouds: missing
Weather: no significant weather forecast for this period